createdAt,value
2019-05-17T00:00:24.290Z,8.50
2019-05-17T00:02:57.021Z,8.50
2019-05-17T00:05:26.616Z,8.40
2019-05-17T00:07:56.882Z,8.50
2019-05-17T00:10:27.111Z,8.40
2019-05-17T00:13:00.218Z,8.40
2019-05-17T00:15:44.363Z,8.40
2019-05-17T00:18:16.970Z,8.40
2019-05-17T00:20:49.615Z,8.30
2019-05-17T00:23:19.917Z,8.30
2019-05-17T00:25:50.132Z,8.30
2019-05-17T00:28:21.841Z,8.30
2019-05-17T00:30:52.043Z,8.20
2019-05-17T00:33:22.285Z,8.20
2019-05-17T00:35:52.494Z,8.20
2019-05-17T00:38:22.790Z,8.10
2019-05-17T00:40:52.996Z,8.10
2019-05-17T00:43:23.231Z,8.10
2019-05-17T00:45:59.137Z,8.10
2019-05-17T00:48:29.339Z,8.10
2019-05-17T00:51:03.413Z,8.10
2019-05-17T00:53:39.236Z,8.10
2019-05-17T00:56:09.621Z,8.10
2019-05-17T00:58:42.993Z,8.10
2019-05-17T01:01:13.219Z,8.10
2019-05-17T01:03:43.462Z,8.00
2019-05-17T01:06:16.915Z,8.00
2019-05-17T01:09:00.591Z,8.00
2019-05-17T01:11:19.581Z,8.00
2019-05-17T01:13:49.768Z,8.00
2019-05-17T01:16:19.968Z,7.90
2019-05-17T01:18:50.189Z,7.90
2019-05-17T01:21:20.408Z,7.90
2019-05-17T01:23:50.703Z,7.90
2019-05-17T01:26:21.024Z,7.90
2019-05-17T01:28:51.272Z,7.80
2019-05-17T01:31:21.465Z,7.80
2019-05-17T01:33:51.683Z,7.80
2019-05-17T01:36:21.894Z,7.80
2019-05-17T01:38:52.106Z,7.70
2019-05-17T01:41:22.301Z,7.70
2019-05-17T01:43:52.498Z,7.70
2019-05-17T01:46:22.770Z,7.70
2019-05-17T01:48:52.974Z,7.60
2019-05-17T01:51:23.178Z,7.60
2019-05-17T01:53:53.388Z,7.60
2019-05-17T01:56:23.588Z,7.60
2019-05-17T01:58:53.786Z,7.60
2019-05-17T02:01:23.992Z,7.50
2019-05-17T02:03:54.194Z,7.60
2019-05-17T02:06:24.423Z,7.50
2019-05-17T02:08:56.782Z,7.50
2019-05-17T02:11:27.053Z,7.50
2019-05-17T02:13:57.358Z,7.50
2019-05-17T02:16:27.576Z,7.40
2019-05-17T02:18:57.799Z,7.40
2019-05-17T02:21:28.036Z,7.40
2019-05-17T02:23:58.230Z,7.40
2019-05-17T02:26:28.442Z,7.40
2019-05-17T02:28:58.720Z,6.90
2019-05-17T02:31:32.652Z,7.40
2019-05-17T02:34:03.204Z,7.30
2019-05-17T02:36:33.573Z,7.30
2019-05-17T02:39:04.959Z,7.30
2019-05-17T02:41:35.506Z,7.30
2019-05-17T02:44:05.919Z,7.30
2019-05-17T02:46:36.120Z,7.30
2019-05-17T02:49:06.339Z,7.30
2019-05-17T02:51:36.556Z,7.30
2019-05-17T02:54:06.808Z,7.20
2019-05-17T02:56:37.002Z,7.20
2019-05-17T02:59:07.276Z,7.20
2019-05-17T03:01:37.495Z,7.20
2019-05-17T03:04:07.835Z,7.20
2019-05-17T03:06:38.041Z,7.20
2019-05-17T03:09:08.391Z,7.10
2019-05-17T03:11:38.611Z,7.10
2019-05-17T03:14:08.902Z,7.10
2019-05-17T03:16:39.111Z,7.10
2019-05-17T03:19:12.791Z,7.00
2019-05-17T03:21:42.900Z,7.00
2019-05-17T03:24:13.957Z,7.00
2019-05-17T03:26:44.454Z,7.00
2019-05-17T03:29:14.655Z,7.00
2019-05-17T03:31:53.440Z,7.00
2019-05-17T03:34:17.972Z,6.90
2019-05-17T03:36:48.714Z,6.90
2019-05-17T03:39:22.466Z,7.00
2019-05-17T03:41:53.533Z,6.90
2019-05-17T03:44:22.877Z,6.30
2019-05-17T03:46:53.389Z,6.90
2019-05-17T03:49:23.741Z,6.90
2019-05-17T03:51:54.062Z,6.90
2019-05-17T03:54:24.338Z,6.90
2019-05-17T03:56:54.629Z,6.90
2019-05-17T03:59:24.925Z,6.90
2019-05-17T04:01:55.135Z,6.90
2019-05-17T04:04:25.360Z,6.90
2019-05-17T04:06:55.568Z,6.90
2019-05-17T04:09:25.793Z,6.90
2019-05-17T04:11:56.029Z,7.00
2019-05-17T04:14:26.235Z,7.10
2019-05-17T04:16:56.457Z,7.10
2019-05-17T04:19:26.720Z,7.20
2019-05-17T04:21:56.935Z,7.30
2019-05-17T04:24:27.127Z,7.30
2019-05-17T04:26:57.416Z,7.40
2019-05-17T04:29:27.729Z,7.40
2019-05-17T04:31:57.949Z,7.40
2019-05-17T04:34:28.153Z,7.40
2019-05-17T04:36:58.376Z,7.50
2019-05-17T04:39:28.638Z,7.50
2019-05-17T04:41:58.853Z,7.60
2019-05-17T04:44:29.047Z,7.60
2019-05-17T04:47:02.764Z,7.60
2019-05-17T04:49:33.212Z,7.60
2019-05-17T04:52:03.827Z,7.60
2019-05-17T04:54:34.098Z,7.60
2019-05-17T04:57:04.321Z,7.60
2019-05-17T04:59:34.686Z,7.60
2019-05-17T05:02:06.707Z,7.60
2019-05-17T05:04:38.572Z,7.50
2019-05-17T05:07:08.999Z,7.50
2019-05-17T05:09:42.964Z,7.50
2019-05-17T05:12:12.739Z,7.50
2019-05-17T05:14:43.336Z,7.50
2019-05-17T05:17:13.580Z,7.50
2019-05-17T05:19:44.017Z,7.50
2019-05-17T05:22:17.410Z,7.50
2019-05-17T05:24:46.137Z,7.50
2019-05-17T05:27:17.361Z,7.60
2019-05-17T05:29:47.603Z,7.60
2019-05-17T05:32:17.818Z,7.60
2019-05-17T05:34:48.046Z,7.60
2019-05-17T05:37:20.257Z,7.70
2019-05-17T05:39:52.325Z,7.70
2019-05-17T05:42:22.199Z,7.80
2019-05-17T05:44:55.109Z,7.80
2019-05-17T05:47:24.313Z,7.90
2019-05-17T05:49:54.522Z,7.90
2019-05-17T05:52:24.749Z,8.00
2019-05-17T05:54:54.957Z,8.10
2019-05-17T05:57:25.188Z,8.10
2019-05-17T05:59:55.421Z,8.20
2019-05-17T06:02:25.637Z,8.30
2019-05-17T06:04:55.857Z,8.30
2019-05-17T06:07:26.060Z,8.40
2019-05-17T06:09:56.272Z,8.40
2019-05-17T06:12:28.177Z,8.40
2019-05-17T06:14:58.606Z,8.50
2019-05-17T06:17:28.830Z,8.50
2019-05-17T06:19:59.034Z,8.60
2019-05-17T06:22:31.705Z,8.60
2019-05-17T06:25:03.727Z,8.70
2019-05-17T06:27:33.162Z,8.80
2019-05-17T06:30:03.598Z,8.90
2019-05-17T06:32:33.821Z,8.90
2019-05-17T06:35:05.177Z,9.00
2019-05-17T06:37:35.402Z,9.10
2019-05-17T06:40:07.453Z,9.20
2019-05-17T06:42:41.184Z,9.30
2019-05-17T06:45:12.350Z,9.40
2019-05-17T06:47:42.735Z,9.50
2019-05-17T06:50:14.689Z,9.50
2019-05-17T06:52:45.019Z,9.60
2019-05-17T06:55:15.400Z,9.70
2019-05-17T06:57:45.596Z,9.70
2019-05-17T07:00:20.718Z,9.90
2019-05-17T07:02:49.828Z,10.00
2019-05-17T07:05:30.849Z,10.10
2019-05-17T07:08:01.066Z,10.30
2019-05-17T07:10:31.262Z,10.50
2019-05-17T07:13:12.543Z,10.60
2019-05-17T07:15:54.430Z,10.60
2019-05-17T07:18:39.967Z,10.60
2019-05-17T07:21:10.852Z,10.50
2019-05-17T07:23:41.818Z,10.50
2019-05-17T07:26:12.284Z,10.50
2019-05-17T07:28:42.496Z,10.50
2019-05-17T07:31:12.823Z,10.50
2019-05-17T07:33:43.040Z,10.50
2019-05-17T07:36:13.256Z,10.60
2019-05-17T07:38:43.488Z,10.70
2019-05-17T07:41:13.692Z,10.80
2019-05-17T07:43:43.902Z,10.90
2019-05-17T07:46:14.104Z,11.00
2019-05-17T07:48:44.417Z,11.00
2019-05-17T07:51:14.613Z,11.10
2019-05-17T07:53:44.825Z,11.20
2019-05-17T07:56:15.040Z,11.30
2019-05-17T07:58:45.245Z,11.40
2019-05-17T08:01:15.462Z,11.50
2019-05-17T08:03:45.691Z,11.50
2019-05-17T08:06:15.917Z,11.60
2019-05-17T08:08:46.137Z,11.70
2019-05-17T08:11:19.634Z,11.70
2019-05-17T08:13:50.448Z,11.70
2019-05-17T08:16:20.918Z,11.70
2019-05-17T08:18:51.146Z,11.80
2019-05-17T08:21:21.360Z,12.00
2019-05-17T08:23:51.609Z,12.10
2019-05-17T08:26:21.827Z,12.20
2019-05-17T08:28:52.058Z,12.30
2019-05-17T08:31:22.289Z,12.50
2019-05-17T08:33:52.518Z,12.60
2019-05-17T08:36:22.793Z,12.60
2019-05-17T08:38:53.099Z,12.70
2019-05-17T08:41:23.360Z,12.80
2019-05-17T08:43:53.582Z,12.80
2019-05-17T08:46:23.810Z,12.90
2019-05-17T08:48:54.058Z,13.00
2019-05-17T08:51:24.295Z,13.10
2019-05-17T08:53:54.532Z,13.20
2019-05-17T08:56:24.730Z,13.20
2019-05-17T08:58:55.050Z,13.20
2019-05-17T09:01:25.263Z,13.30
2019-05-17T09:03:55.486Z,13.40
2019-05-17T09:06:25.767Z,13.50
2019-05-17T09:08:56.001Z,13.60
2019-05-17T09:11:26.199Z,13.70
2019-05-17T09:14:01.158Z,13.80
2019-05-17T09:16:30.762Z,14.00
2019-05-17T09:19:00.641Z,14.10
2019-05-17T09:21:31.482Z,14.10
2019-05-17T09:24:01.854Z,14.10
2019-05-17T09:26:32.069Z,14.20
2019-05-17T09:29:02.273Z,14.20
2019-05-17T09:31:32.583Z,14.20
2019-05-17T09:34:02.788Z,14.30
2019-05-17T09:36:33.061Z,14.40
2019-05-17T09:39:04.897Z,14.30
2019-05-17T09:41:35.187Z,14.30
2019-05-17T09:44:12.790Z,14.30
2019-05-17T09:46:39.586Z,14.40
2019-05-17T09:49:10.389Z,14.50
2019-05-17T09:51:40.784Z,14.50
2019-05-17T09:54:11.099Z,14.60
2019-05-17T09:56:41.307Z,14.70
2019-05-17T09:59:11.561Z,14.70
2019-05-17T10:01:41.750Z,14.70
2019-05-17T10:04:13.410Z,14.70
2019-05-17T10:06:44.062Z,14.80
2019-05-17T10:09:14.941Z,14.90
2019-05-17T10:11:45.233Z,14.90
2019-05-17T10:14:25.800Z,15.00
2019-05-17T10:16:47.404Z,15.10
2019-05-17T10:19:20.842Z,15.30
2019-05-17T10:21:49.696Z,15.30
2019-05-17T10:24:23.962Z,15.40
2019-05-17T10:26:51.841Z,15.40
2019-05-17T10:29:22.064Z,15.60
2019-05-17T10:31:52.311Z,15.70
2019-05-17T10:34:22.521Z,15.80
2019-05-17T10:36:52.760Z,15.90
2019-05-17T10:39:22.979Z,15.90
2019-05-17T10:41:53.235Z,16.00
2019-05-17T10:44:23.455Z,16.10
2019-05-17T10:46:53.680Z,16.10
2019-05-17T10:49:23.902Z,16.10
2019-05-17T10:51:54.146Z,16.20
2019-05-17T10:54:24.358Z,16.10
2019-05-17T10:56:54.671Z,16.20
2019-05-17T10:59:24.936Z,16.10
2019-05-17T11:01:55.176Z,15.90
2019-05-17T11:04:25.399Z,15.70
2019-05-17T11:06:55.787Z,15.60
2019-05-17T11:09:26.776Z,15.60
2019-05-17T11:11:57.010Z,15.70
2019-05-17T11:14:27.216Z,15.70
2019-05-17T11:16:57.501Z,15.70
2019-05-17T11:19:27.852Z,15.70
2019-05-17T11:21:58.079Z,15.80
2019-05-17T11:24:28.294Z,16.00
2019-05-17T11:26:58.519Z,16.10
2019-05-17T11:29:28.813Z,16.30
2019-05-17T11:31:59.022Z,16.40
2019-05-17T11:34:29.228Z,16.60
2019-05-17T11:36:59.535Z,16.80
2019-05-17T11:39:29.807Z,16.70
2019-05-17T11:42:00.122Z,16.70
2019-05-17T11:44:30.327Z,16.70
2019-05-17T11:47:00.639Z,16.70
2019-05-17T11:49:30.864Z,16.80
2019-05-17T11:52:01.102Z,16.80
2019-05-17T11:54:31.493Z,16.90
2019-05-17T11:57:01.722Z,17.00
2019-05-17T11:59:31.996Z,17.10
2019-05-17T12:02:02.295Z,17.20
2019-05-17T12:04:32.638Z,17.20
2019-05-17T12:07:15.427Z,17.10
2019-05-17T12:09:45.724Z,17.00
2019-05-17T12:12:16.038Z,17.10
2019-05-17T12:14:46.292Z,17.10
2019-05-17T12:17:16.490Z,17.10
2019-05-17T12:19:55.076Z,17.10
2019-05-17T12:22:25.296Z,17.00
2019-05-17T12:24:55.501Z,16.90
2019-05-17T12:27:25.711Z,16.80
2019-05-17T12:29:56.016Z,16.70
2019-05-17T12:32:26.208Z,16.60
2019-05-17T12:34:56.465Z,16.60
2019-05-17T12:37:26.657Z,16.60
2019-05-17T12:39:56.880Z,16.70
2019-05-17T12:42:27.108Z,17.00
2019-05-17T12:44:57.366Z,16.70
2019-05-17T12:47:27.563Z,16.70
2019-05-17T12:49:57.786Z,16.70
2019-05-17T12:52:28.065Z,16.70
2019-05-17T12:54:58.337Z,16.70
2019-05-17T12:57:28.565Z,16.70
2019-05-17T12:59:58.792Z,16.70
2019-05-17T13:02:29.000Z,16.70
2019-05-17T13:04:59.324Z,16.80
2019-05-17T13:07:29.530Z,16.80
2019-05-17T13:09:59.839Z,16.90
2019-05-17T13:12:30.071Z,16.90
2019-05-17T13:15:00.365Z,16.90
2019-05-17T13:17:30.684Z,17.00
2019-05-17T13:20:00.943Z,17.00
2019-05-17T13:22:31.251Z,17.10
2019-05-17T13:25:01.444Z,17.20
2019-05-17T13:27:31.653Z,17.30
2019-05-17T13:30:01.870Z,17.40
2019-05-17T13:32:32.086Z,17.40
2019-05-17T13:35:02.287Z,17.90
2019-05-17T13:37:32.528Z,17.50
2019-05-17T13:40:03.198Z,17.60
2019-05-17T13:42:33.419Z,17.60
2019-05-17T13:45:05.729Z,17.70
2019-05-17T13:47:35.963Z,18.00
2019-05-17T13:50:07.870Z,18.30
2019-05-17T13:56:33.326Z,18.40
2019-05-17T13:59:03.523Z,18.40
2019-05-17T14:01:33.750Z,18.50
2019-05-17T14:04:04.039Z,18.70
2019-05-17T14:06:34.232Z,18.80
2019-05-17T14:09:07.456Z,18.90
2019-05-17T14:11:37.694Z,19.10
2019-05-17T14:14:07.989Z,19.20
2019-05-17T14:16:38.495Z,19.20
2019-05-17T14:19:08.761Z,19.20
2019-05-17T14:21:39.024Z,19.10
2019-05-17T14:24:09.274Z,19.00
2019-05-17T14:26:39.606Z,19.10
2019-05-17T14:29:09.825Z,19.30
2019-05-17T14:31:40.034Z,19.50
2019-05-17T14:34:10.246Z,19.50
2019-05-17T14:36:40.564Z,20.00
2019-05-17T14:39:10.828Z,20.10
2019-05-17T14:41:41.086Z,20.10
2019-05-17T14:44:11.351Z,20.10
2019-05-17T14:46:41.563Z,19.90
2019-05-17T14:49:11.787Z,19.70
2019-05-17T14:51:41.996Z,19.60
2019-05-17T14:54:12.258Z,19.40
2019-05-17T14:56:42.721Z,19.80
2019-05-17T14:59:12.978Z,20.10
2019-05-17T15:01:43.256Z,22.20
2019-05-17T15:04:13.519Z,26.20
2019-05-17T15:06:43.753Z,29.80
2019-05-17T15:09:13.996Z,32.80
2019-05-17T15:11:44.226Z,35.20
2019-05-17T15:14:14.446Z,37.20
2019-05-17T15:16:44.671Z,38.50
2019-05-17T15:19:14.881Z,39.50
2019-05-17T15:21:45.125Z,40.30
2019-05-17T15:24:15.321Z,40.90
2019-05-17T15:26:45.626Z,41.50
2019-05-17T15:29:15.839Z,41.90
2019-05-17T15:31:46.055Z,39.80
2019-05-17T15:34:16.278Z,36.70
2019-05-17T15:36:46.514Z,33.40
2019-05-17T15:39:16.820Z,31.00
2019-05-17T15:41:47.247Z,31.50
2019-05-17T15:44:18.071Z,32.60
2019-05-17T15:46:48.329Z,34.80
2019-05-17T15:49:18.524Z,36.00
2019-05-17T15:51:48.924Z,34.00
2019-05-17T15:54:19.131Z,31.40
2019-05-17T15:56:49.360Z,29.50
2019-05-17T15:59:19.556Z,28.00
2019-05-17T16:01:49.791Z,26.80
2019-05-17T16:04:20.074Z,26.40
2019-05-17T16:06:50.432Z,26.00
2019-05-17T16:09:20.664Z,25.10
2019-05-17T16:11:50.889Z,24.10
2019-05-17T16:14:21.079Z,23.10
2019-05-17T16:16:51.310Z,22.60
2019-05-17T16:19:21.515Z,23.00
2019-05-17T16:21:51.711Z,23.10
2019-05-17T16:24:21.942Z,22.80
2019-05-17T16:26:52.159Z,22.40
2019-05-17T16:29:22.418Z,22.20
2019-05-17T16:31:52.690Z,22.00
2019-05-17T16:34:22.971Z,21.70
2019-05-17T16:36:53.177Z,21.30
2019-05-17T16:39:23.380Z,21.10
2019-05-17T16:41:53.581Z,20.70
2019-05-17T16:44:23.793Z,20.30
2019-05-17T16:46:54.090Z,19.80
2019-05-17T16:49:24.309Z,19.40
2019-05-17T16:51:54.784Z,19.10
2019-05-17T16:54:25.011Z,19.00
2019-05-17T16:56:55.239Z,18.90
2019-05-17T16:59:25.622Z,18.90
2019-05-17T17:01:55.889Z,18.80
2019-05-17T17:04:26.129Z,18.80
2019-05-17T17:06:56.336Z,18.70
2019-05-17T17:09:26.546Z,18.70
2019-05-17T17:11:56.739Z,18.70
2019-05-17T17:14:26.957Z,18.60
2019-05-17T17:16:57.158Z,18.50
2019-05-17T17:19:27.371Z,18.40
2019-05-17T17:21:57.694Z,18.20
2019-05-17T17:24:27.961Z,18.10
2019-05-17T17:26:58.316Z,18.10
2019-05-17T17:29:28.562Z,18.00
2019-05-17T17:31:58.859Z,17.90
2019-05-17T17:34:29.087Z,17.90
2019-05-17T17:36:59.316Z,17.80
2019-05-17T17:39:29.535Z,17.70
2019-05-17T17:41:59.753Z,17.70
2019-05-17T17:44:29.957Z,17.60
2019-05-17T17:47:00.189Z,17.60
2019-05-17T17:49:30.625Z,17.70
2019-05-17T17:52:00.889Z,18.00
2019-05-17T17:54:31.116Z,18.30
2019-05-17T17:57:01.326Z,18.30
2019-05-17T17:59:31.518Z,18.10
2019-05-17T18:02:01.734Z,17.80
2019-05-17T18:04:31.959Z,17.60
2019-05-17T18:07:02.166Z,17.40
2019-05-17T18:09:32.375Z,17.20
2019-05-17T18:12:02.616Z,17.10
2019-05-17T18:14:32.913Z,16.90
2019-05-17T18:17:03.130Z,16.80
2019-05-17T18:19:33.375Z,16.60
2019-05-17T18:22:03.555Z,16.60
2019-05-17T18:24:33.778Z,16.40
2019-05-17T18:27:04.001Z,16.30
2019-05-17T18:29:34.241Z,16.30
2019-05-17T18:32:04.513Z,16.20
2019-05-17T18:34:34.743Z,16.10
2019-05-17T18:37:05.025Z,16.00
2019-05-17T18:39:35.257Z,16.00
2019-05-17T18:42:05.530Z,15.90
2019-05-17T18:44:35.826Z,15.80
2019-05-17T18:47:06.212Z,15.80
2019-05-17T18:49:36.435Z,15.70
2019-05-17T18:52:06.720Z,15.70
2019-05-17T18:54:36.956Z,15.60
2019-05-17T18:57:07.149Z,15.50
2019-05-17T18:59:37.364Z,15.50
2019-05-17T19:02:07.590Z,15.40
2019-05-17T19:04:37.792Z,15.40
2019-05-17T19:07:08.178Z,15.30
2019-05-17T19:09:38.483Z,15.30
2019-05-17T19:12:08.759Z,15.20
2019-05-17T19:14:42.998Z,14.40
2019-05-17T19:17:10.935Z,15.10
2019-05-17T19:19:41.907Z,15.00
2019-05-17T19:22:12.137Z,15.00
2019-05-17T19:24:42.423Z,14.90
2019-05-17T19:27:12.652Z,14.90
2019-05-17T19:29:43.485Z,14.80
2019-05-17T19:32:13.711Z,14.80
2019-05-17T19:34:43.925Z,14.70
2019-05-17T19:37:14.150Z,14.70
2019-05-17T19:39:44.398Z,14.60
2019-05-17T19:42:14.615Z,14.60
2019-05-17T19:44:57.946Z,14.60
2019-05-17T19:47:16.740Z,14.50
2019-05-17T19:49:47.004Z,14.50
2019-05-17T19:52:18.441Z,14.50
2019-05-17T19:54:48.663Z,14.40
2019-05-17T19:57:18.873Z,14.40
2019-05-17T19:59:49.107Z,14.40
2019-05-17T20:02:19.365Z,14.30
2019-05-17T20:04:49.595Z,14.20
2019-05-17T20:07:19.797Z,14.20
2019-05-17T20:09:50.134Z,14.10
2019-05-17T20:12:20.353Z,14.10
2019-05-17T20:14:50.572Z,14.00
2019-05-17T20:17:21.461Z,14.00
2019-05-17T20:19:51.687Z,13.90
2019-05-17T20:22:21.903Z,13.90
2019-05-17T20:24:52.158Z,13.80
2019-05-17T20:27:22.362Z,13.80
2019-05-17T20:29:52.757Z,13.70
2019-05-17T20:32:22.989Z,13.70
2019-05-17T20:34:53.230Z,13.60
2019-05-17T20:37:23.418Z,13.60
2019-05-17T20:39:53.647Z,13.50
2019-05-17T20:42:23.881Z,13.50
2019-05-17T20:44:54.157Z,13.50
2019-05-17T20:47:24.546Z,13.40
2019-05-17T20:49:54.790Z,13.30
2019-05-17T20:52:25.005Z,13.30
2019-05-17T20:54:55.247Z,13.30
2019-05-17T20:57:25.466Z,13.20
2019-05-17T20:59:55.686Z,13.20
2019-05-17T21:02:26.120Z,13.10
2019-05-17T21:04:56.323Z,13.10
2019-05-17T21:07:26.530Z,13.10
2019-05-17T21:09:56.771Z,13.10
2019-05-17T21:12:26.971Z,13.00
2019-05-17T21:14:57.192Z,13.00
2019-05-17T21:17:27.399Z,12.90
2019-05-17T21:19:57.647Z,12.90
2019-05-17T21:22:27.871Z,12.90
2019-05-17T21:24:58.101Z,12.80
2019-05-17T21:27:28.332Z,12.80
2019-05-17T21:29:58.571Z,12.70
2019-05-17T21:32:28.762Z,12.70
2019-05-17T21:34:59.024Z,12.70
2019-05-17T21:37:29.302Z,12.70
2019-05-17T21:39:59.524Z,12.60
2019-05-17T21:42:29.741Z,12.60
2019-05-17T21:44:59.957Z,12.60
2019-05-17T21:47:30.160Z,12.60
2019-05-17T21:50:00.373Z,12.60
2019-05-17T21:52:30.588Z,12.60
2019-05-17T21:55:00.789Z,12.50
2019-05-17T21:57:31.000Z,12.50
2019-05-17T22:00:01.286Z,12.50
2019-05-17T22:02:31.626Z,12.50
2019-05-17T22:05:01.858Z,12.50
2019-05-17T22:07:32.075Z,12.40
2019-05-17T22:10:02.304Z,12.40
2019-05-17T22:12:32.496Z,12.40
2019-05-17T22:15:02.697Z,12.40
2019-05-17T22:17:32.901Z,12.40
2019-05-17T22:20:03.468Z,12.30
2019-05-17T22:22:33.708Z,12.30
2019-05-17T22:25:05.240Z,12.30
2019-05-17T22:27:35.495Z,12.30
2019-05-17T22:30:10.476Z,12.30
2019-05-17T22:32:40.698Z,12.20
2019-05-17T22:35:11.123Z,12.20
2019-05-17T22:37:41.378Z,12.10
2019-05-17T22:40:11.644Z,12.10
2019-05-17T22:42:41.878Z,12.10
2019-05-17T22:45:13.013Z,12.00
2019-05-17T22:47:43.248Z,12.00
2019-05-17T22:50:13.816Z,12.00
2019-05-17T22:52:44.111Z,12.00
2019-05-17T22:55:14.651Z,11.90
2019-05-17T22:57:44.882Z,11.90
2019-05-17T23:00:15.681Z,11.90
2019-05-17T23:02:45.927Z,11.80
2019-05-17T23:05:16.134Z,11.80
2019-05-17T23:07:46.955Z,11.80
2019-05-17T23:10:18.699Z,11.80
2019-05-17T23:12:48.939Z,11.70
2019-05-17T23:15:19.471Z,11.70
2019-05-17T23:17:49.711Z,11.70
2019-05-17T23:20:19.998Z,11.70
2019-05-17T23:22:50.213Z,11.60
2019-05-17T23:25:20.424Z,11.60
2019-05-17T23:27:50.627Z,11.60
2019-05-17T23:30:20.827Z,11.50
2019-05-17T23:32:51.021Z,11.50
2019-05-17T23:35:21.251Z,11.40
2019-05-17T23:37:51.447Z,11.40
2019-05-17T23:40:21.669Z,11.40
2019-05-17T23:42:51.866Z,11.40
2019-05-17T23:45:22.076Z,11.30
2019-05-17T23:47:52.274Z,11.30
2019-05-17T23:50:22.491Z,11.30
2019-05-17T23:52:52.704Z,11.30
2019-05-17T23:55:22.917Z,11.30
2019-05-17T23:57:53.178Z,11.20
